Time;durP1;ratioP1;P1;durP2;ratioP2;P2;SDS_P1;SDS_P2;PMS_P1;PMS_P2;Temp;Humidity;BMP_temperature;BMP_pressure;BME280_temperature;BME280_humidity;BME280_pressure;Samples;Min_cycle;Max_cycle;Signal;HPM_P1;HPM_P2
2021/11/14 00:01:50;;;;;;;62.22;31.98;;;10.20;99.90;;;;;;5010898;28;20133;-54
2021/11/14 00:04:16;;;;;;;68.38;32.85;;;10.10;99.90;;;;;;5016634;28;20445;-54
2021/11/14 00:06:43;;;;;;;57.95;31.63;;;10.10;99.90;;;;;;5014050;28;20073;-54
2021/11/14 00:09:10;;;;;;;58.63;31.48;;;10.10;99.90;;;;;;5013966;28;20042;-54
2021/11/14 00:11:36;;;;;;;59.53;31.92;;;10.10;99.90;;;;;;5014079;28;20065;-56
2021/11/14 00:14:02;;;;;;;60.38;31.83;;;10.10;99.90;;;;;;5013026;28;20153;-54
2021/11/14 00:16:28;;;;;;;59.40;32.78;;;10.20;99.90;;;;;;5010222;28;20080;-54
2021/11/14 00:18:55;;;;;;;61.08;30.30;;;10.10;99.90;;;;;;5009832;28;20061;-54
2021/11/14 00:21:23;;;;;;;61.65;32.78;;;10.20;99.90;;;;;;5013557;28;20525;-55
2021/11/14 00:23:48;;;;;;;60.90;31.27;;;10.20;99.90;;;;;;5013472;28;20034;-56
2021/11/14 00:26:14;;;;;;;67.25;32.45;;;10.20;99.90;;;;;;5013486;28;20149;-53
2021/11/14 00:28:42;;;;;;;62.55;30.85;;;10.20;99.90;;;;;;5006092;28;20038;-54
2021/11/14 00:33:44;;;;;;;57.38;32.03;;;10.20;99.90;;;;;;5130314;22;20116;-54
2021/11/14 00:36:11;;;;;;;61.53;31.23;;;10.20;99.90;;;;;;5003820;28;20077;-54
2021/11/14 00:38:38;;;;;;;57.58;31.80;;;10.20;99.90;;;;;;5014068;28;20045;-53
2021/11/14 00:41:04;;;;;;;63.20;32.10;;;10.20;99.90;;;;;;5009424;28;20061;-54
2021/11/14 00:43:30;;;;;;;55.08;30.50;;;10.20;99.90;;;;;;5013811;28;20070;-54
2021/11/14 00:45:55;;;;;;;56.60;31.75;;;10.10;99.90;;;;;;5005982;28;20450;-54
2021/11/14 00:48:21;;;;;;;56.17;31.02;;;10.20;99.90;;;;;;5011714;28;20034;-54
2021/11/14 00:50:47;;;;;;;64.32;32.25;;;10.20;99.90;;;;;;5014336;28;20046;-54
2021/11/14 00:53:18;;;;;;;59.42;30.98;;;10.20;99.90;;;;;;4995953;28;20041;-54
2021/11/14 00:55:44;;;;;;;59.72;31.33;;;10.20;99.90;;;;;;5010752;28;20085;-54
2021/11/14 00:58:09;;;;;;;66.35;32.67;;;10.20;99.90;;;;;;5006940;28;20034;-54
2021/11/14 01:00:37;;;;;;;65.45;32.55;;;10.20;99.90;;;;;;5013527;28;20045;-54
2021/11/14 01:03:04;;;;;;;57.50;31.35;;;10.20;99.90;;;;;;5013912;28;20045;-54
2021/11/14 01:05:32;;;;;;;64.45;32.55;;;10.20;99.90;;;;;;5011721;28;20038;-52
2021/11/14 01:07:58;;;;;;;65.97;33.42;;;10.10;99.90;;;;;;5002723;28;20042;-53
2021/11/14 01:10:29;;;;;;;67.85;33.47;;;10.10;99.90;;;;;;5007937;28;20500;-52
2021/11/14 01:12:57;;;;;;;62.22;32.58;;;10.10;99.90;;;;;;4996325;28;20362;-54
2021/11/14 01:15:23;;;;;;;65.40;32.83;;;10.10;99.90;;;;;;5013845;28;20065;-54
2021/11/14 01:17:50;;;;;;;63.88;32.47;;;10.10;99.90;;;;;;5000984;28;20042;-54
2021/11/14 01:20:23;;;;;;;67.90;32.38;;;10.10;99.90;;;;;;5010042;28;20390;-54
2021/11/14 01:22:50;;;;;;;64.93;33.50;;;10.10;99.90;;;;;;4995811;28;20406;-55
2021/11/14 01:25:17;;;;;;;69.32;34.65;;;10.10;99.90;;;;;;5012449;28;20041;-54
2021/11/14 01:27:44;;;;;;;63.08;33.85;;;10.10;99.90;;;;;;5012607;28;20045;-54
2021/11/14 01:30:14;;;;;;;60.90;33.53;;;10.10;99.90;;;;;;5011184;28;20561;-55
2021/11/14 01:32:40;;;;;;;66.45;33.72;;;10.10;99.90;;;;;;5008249;28;20096;-55
2021/11/14 01:35:08;;;;;;;68.93;33.08;;;10.10;99.90;;;;;;5005742;28;20441;-55
2021/11/14 01:37:34;;;;;;;69.43;33.25;;;10.20;99.90;;;;;;5009199;28;20069;-55
2021/11/14 01:39:59;;;;;;;60.95;32.45;;;10.10;99.90;;;;;;5006904;28;20037;-55
2021/11/14 01:42:25;;;;;;;66.30;33.85;;;10.10;99.90;;;;;;5011962;28;20045;-54
2021/11/14 01:44:50;;;;;;;60.65;32.47;;;10.10;99.90;;;;;;5013344;28;20401;-55
2021/11/14 01:47:16;;;;;;;62.25;33.60;;;10.20;99.90;;;;;;5013096;28;20069;-53
2021/11/14 01:49:42;;;;;;;63.60;32.92;;;10.20;99.90;;;;;;4995010;28;20157;-53
2021/11/14 01:52:19;;;;;;;62.13;32.05;;;10.10;99.90;;;;;;5013490;28;20029;-53
2021/11/14 01:54:44;;;;;;;67.15;33.88;;;10.20;99.90;;;;;;5012919;28;20037;-55
2021/11/14 01:57:10;;;;;;;62.70;31.67;;;10.10;99.90;;;;;;5003223;28;20030;-55
2021/11/14 01:59:37;;;;;;;63.45;32.13;;;10.10;99.90;;;;;;5008782;28;20132;-52
2021/11/14 02:02:03;;;;;;;58.75;31.50;;;10.10;99.90;;;;;;5012824;28;20045;-54
2021/11/14 02:04:29;;;;;;;63.00;31.90;;;10.20;99.90;;;;;;5012632;28;20509;-53
2021/11/14 02:06:55;;;;;;;59.92;32.03;;;10.10;99.90;;;;;;5011223;28;20042;-53
2021/11/14 02:09:21;;;;;;;62.90;33.22;;;10.10;99.90;;;;;;5009026;28;20038;-53
2021/11/14 02:11:47;;;;;;;65.57;31.73;;;10.20;99.90;;;;;;5007682;28;20069;-55
2021/11/14 02:14:12;;;;;;;64.88;33.25;;;10.10;99.90;;;;;;5007707;28;20070;-55
2021/11/14 02:16:38;;;;;;;60.65;31.65;;;10.10;99.90;;;;;;5004569;28;20076;-55
2021/11/14 02:19:06;;;;;;;61.67;33.22;;;10.10;99.90;;;;;;5010773;28;20033;-53
2021/11/14 02:21:32;;;;;;;63.33;32.30;;;10.10;99.90;;;;;;4973327;28;20567;-54
2021/11/14 02:23:59;;;;;;;62.38;32.03;;;10.10;99.90;;;;;;5012304;28;20040;-55
2021/11/14 02:26:24;;;;;;;62.22;33.38;;;10.10;99.90;;;;;;5011821;28;20037;-54
2021/11/14 02:28:53;;;;;;;61.63;32.10;;;10.10;99.90;;;;;;5009560;28;20069;-56
2021/11/14 02:31:19;;;;;;;69.35;33.15;;;10.10;99.90;;;;;;4975463;28;20045;-56
2021/11/14 02:33:45;;;;;;;72.68;32.90;;;10.10;99.90;;;;;;5003417;28;20513;-55
2021/11/14 02:36:12;;;;;;;65.22;32.38;;;10.10;99.90;;;;;;5010569;28;20045;-55
2021/11/14 02:38:38;;;;;;;60.83;31.40;;;10.10;99.90;;;;;;5004149;28;20030;-56
2021/11/14 02:41:05;;;;;;;66.30;32.47;;;10.10;99.90;;;;;;5011168;28;20042;-56
2021/11/14 02:43:31;;;;;;;69.78;32.75;;;10.10;99.90;;;;;;5004434;28;20045;-53
2021/11/14 02:45:56;;;;;;;69.63;32.80;;;10.00;99.90;;;;;;5011990;28;20038;-54
2021/11/14 02:48:23;;;;;;;63.63;32.47;;;10.10;99.90;;;;;;5015543;28;20680;-55
2021/11/14 02:50:52;;;;;;;60.80;31.75;;;10.10;99.90;;;;;;5003644;28;20450;-56
2021/11/14 02:53:18;;;;;;;68.25;34.10;;;10.10;99.90;;;;;;5011207;28;20505;-53
2021/11/14 02:55:43;;;;;;;65.80;32.90;;;10.10;99.90;;;;;;4984531;28;20042;-53
2021/11/14 02:58:10;;;;;;;67.85;32.92;;;10.20;99.90;;;;;;5005586;28;20045;-56
2021/11/14 03:00:41;;;;;;;56.17;29.60;;;10.10;99.90;;;;;;5002735;28;20533;-55
2021/11/14 03:03:07;;;;;;;73.23;34.23;;;10.20;99.90;;;;;;5012038;28;20038;-56
2021/11/14 03:05:34;;;;;;;62.70;31.17;;;10.10;99.90;;;;;;5011126;28;20169;-54
2021/11/14 03:08:01;;;;;;;62.83;31.83;;;10.10;99.90;;;;;;5007961;28;20070;-54
2021/11/14 03:10:29;;;;;;;64.15;31.73;;;10.10;99.90;;;;;;5006221;28;20069;-54
2021/11/14 03:13:05;;;;;;;64.18;33.45;;;10.10;99.90;;;;;;5011504;28;20041;-55
2021/11/14 03:15:35;;;;;;;61.90;31.55;;;10.10;99.90;;;;;;4991934;28;20042;-55
2021/11/14 03:18:01;;;;;;;61.50;31.33;;;10.20;99.90;;;;;;5011439;28;20026;-53
2021/11/14 03:20:29;;;;;;;69.13;32.97;;;10.10;99.90;;;;;;5011334;28;20034;-56
2021/11/14 03:22:54;;;;;;;68.75;32.05;;;10.10;99.90;;;;;;5006155;28;20124;-54
2021/11/14 03:25:23;;;;;;;65.28;32.53;;;10.10;99.90;;;;;;5001618;28;20122;-55
2021/11/14 03:27:49;;;;;;;63.03;30.15;;;10.10;99.90;;;;;;5003610;28;20046;-55
2021/11/14 03:30:15;;;;;;;67.13;31.92;;;10.10;99.90;;;;;;4975748;28;20042;-53
2021/11/14 03:32:41;;;;;;;64.40;30.98;;;10.10;99.90;;;;;;5001876;28;20045;-52
2021/11/14 03:35:08;;;;;;;63.90;31.27;;;10.10;99.90;;;;;;5011373;28;20510;-54
2021/11/14 03:37:34;;;;;;;60.00;30.02;;;10.10;99.90;;;;;;5011273;28;20042;-55
2021/11/14 03:40:00;;;;;;;60.75;29.45;;;10.10;99.90;;;;;;5006833;28;20041;-53
2021/11/14 03:42:25;;;;;;;57.78;29.92;;;10.10;99.90;;;;;;5010770;28;20037;-52
2021/11/14 03:44:51;;;;;;;57.92;30.70;;;10.10;99.90;;;;;;5003280;28;20030;-54
2021/11/14 03:47:17;;;;;;;59.33;31.13;;;10.30;99.90;;;;;;5011122;28;20084;-53
2021/11/14 03:49:42;;;;;;;56.85;30.42;;;10.20;99.90;;;;;;5010116;28;20477;-51
2021/11/14 03:52:10;;;;;;;60.97;30.35;;;10.20;99.90;;;;;;5011491;28;20104;-51
2021/11/14 03:54:36;;;;;;;58.95;30.45;;;10.20;99.90;;;;;;5010489;28;20049;-52
2021/11/14 03:57:02;;;;;;;56.55;29.90;;;10.10;99.90;;;;;;5006488;28;20039;-52
2021/11/14 03:59:28;;;;;;;55.20;30.02;;;10.10;99.90;;;;;;5007395;28;20046;-53
2021/11/14 04:01:53;;;;;;;55.33;29.17;;;10.10;99.90;;;;;;5006170;28;20549;-53
2021/11/14 04:04:19;;;;;;;57.20;30.00;;;10.20;99.90;;;;;;5010741;28;20184;-55
2021/11/14 04:06:44;;;;;;;53.35;29.27;;;10.10;99.90;;;;;;5010618;28;20457;-54
2021/11/14 04:09:10;;;;;;;49.30;28.10;;;10.10;99.90;;;;;;5006382;28;20042;-55
2021/11/14 04:11:36;;;;;;;50.83;26.95;;;10.20;99.90;;;;;;5010377;28;20120;-53
2021/11/14 04:14:01;;;;;;;51.35;27.92;;;10.20;99.90;;;;;;5003029;28;20045;-55
2021/11/14 04:16:27;;;;;;;43.60;25.92;;;10.20;99.90;;;;;;5004282;28;20116;-56
2021/11/14 04:18:52;;;;;;;46.95;27.95;;;10.20;99.90;;;;;;5002495;28;20034;-56
2021/11/14 04:21:18;;;;;;;49.75;25.92;;;10.10;99.90;;;;;;5005704;28;20041;-54
2021/11/14 04:23:44;;;;;;;52.53;28.60;;;10.10;99.90;;;;;;5001679;28;20065;-55
2021/11/14 04:26:09;;;;;;;44.70;27.00;;;10.00;99.90;;;;;;5010853;28;20069;-55
2021/11/14 04:28:36;;;;;;;51.00;28.77;;;10.00;99.90;;;;;;5002736;28;20084;-54
2021/11/14 04:31:02;;;;;;;48.60;28.58;;;10.00;99.90;;;;;;5005398;28;20038;-52
2021/11/14 04:33:28;;;;;;;46.75;26.45;;;10.00;99.90;;;;;;5009176;28;20133;-54
2021/11/14 04:35:53;;;;;;;48.33;27.13;;;10.00;99.90;;;;;;5010586;28;20073;-52
2021/11/14 04:38:20;;;;;;;48.38;27.63;;;10.00;99.90;;;;;;5007219;28;20034;-53
2021/11/14 04:40:47;;;;;;;46.13;26.23;;;10.00;99.90;;;;;;5010253;28;20058;-55
2021/11/14 04:43:17;;;;;;;45.47;25.77;;;10.10;99.90;;;;;;5012477;28;20041;-54
2021/11/14 04:45:43;;;;;;;51.22;27.55;;;10.10;99.90;;;;;;4996511;28;20076;-55
2021/11/14 04:48:09;;;;;;;51.85;26.40;;;10.00;99.90;;;;;;5013039;28;20521;-55
2021/11/14 04:50:35;;;;;;;50.85;27.40;;;10.00;99.90;;;;;;4988710;28;20130;-52
2021/11/14 04:53:03;;;;;;;48.95;27.42;;;10.00;99.90;;;;;;5014392;28;20120;-53
2021/11/14 04:55:28;;;;;;;51.83;26.45;;;9.90;99.90;;;;;;5014518;28;20065;-55
2021/11/14 04:57:54;;;;;;;56.47;27.80;;;10.00;99.90;;;;;;5013577;28;20486;-54
2021/11/14 05:00:26;;;;;;;53.72;28.77;;;9.90;99.90;;;;;;5014268;28;20042;-54
2021/11/14 05:02:53;;;;;;;58.38;29.23;;;9.80;99.90;;;;;;5012284;28;20046;-55
2021/11/14 05:05:19;;;;;;;54.95;28.48;;;9.80;99.90;;;;;;5009005;28;20041;-52
2021/11/14 05:07:45;;;;;;;58.28;28.15;;;9.80;99.90;;;;;;5013622;28;20037;-54
2021/11/14 05:10:11;;;;;;;56.38;28.25;;;9.80;99.90;;;;;;4997204;28;20524;-54
2021/11/14 05:12:37;;;;;;;54.63;26.25;;;9.80;99.90;;;;;;4984847;28;20030;-55
2021/11/14 05:15:05;;;;;;;45.88;22.05;;;9.80;99.90;;;;;;5014738;28;20041;-52
2021/11/14 05:17:31;;;;;;;56.30;27.85;;;9.90;99.90;;;;;;4991704;28;20037;-51
2021/11/14 05:19:56;;;;;;;58.05;28.10;;;9.90;99.90;;;;;;5013873;28;20046;-51
2021/11/14 05:22:22;;;;;;;55.88;27.70;;;9.80;99.90;;;;;;5011800;28;20045;-51
2021/11/14 05:24:47;;;;;;;69.97;29.80;;;9.80;99.90;;;;;;5013406;28;20049;-52
2021/11/14 05:27:13;;;;;;;66.43;31.33;;;9.80;99.90;;;;;;5013305;28;20036;-52
2021/11/14 05:29:39;;;;;;;63.03;26.17;;;9.70;99.90;;;;;;5011828;28;20030;-52
2021/11/14 05:32:05;;;;;;;74.18;33.67;;;9.80;99.90;;;;;;5007872;28;20191;-53
2021/11/14 05:34:30;;;;;;;85.35;35.65;;;9.80;99.90;;;;;;5013673;28;20401;-55
2021/11/14 05:36:56;;;;;;;79.03;34.45;;;9.70;99.90;;;;;;5013257;28;20117;-53
2021/11/14 05:39:22;;;;;;;81.03;34.80;;;9.80;99.90;;;;;;5013179;28;20057;-51
2021/11/14 05:41:47;;;;;;;78.18;34.15;;;9.70;99.90;;;;;;5012377;28;20050;-52
2021/11/14 05:44:14;;;;;;;74.55;32.00;;;9.80;99.90;;;;;;5013021;28;20034;-51
2021/11/14 05:46:40;;;;;;;73.80;33.97;;;9.80;99.90;;;;;;5011254;28;20056;-52
2021/11/14 05:52:49;;;;;;;66.75;28.95;;;9.70;99.90;;;;;;5033130;22;20064;-85
2021/11/14 05:55:15;;;;;;;81.45;34.13;;;9.90;99.90;;;;;;5003939;28;20038;-85
2021/11/14 05:57:56;;;;;;;71.00;30.77;;;10.30;99.90;;;;;;5001970;28;20092;-85
2021/11/14 06:00:39;;;;;;;70.53;30.90;;;9.60;99.90;;;;;;4988181;28;20488;-85
2021/11/14 06:05:51;;;;;;;70.68;31.92;;;9.60;99.90;;;;;;4971680;28;20089;-85
2021/11/14 06:08:21;;;;;;;72.35;31.67;;;9.50;99.90;;;;;;5004710;28;20076;-85
2021/11/14 06:10:48;;;;;;;65.50;29.90;;;9.50;99.90;;;;;;5010510;28;20388;-85
2021/11/14 06:13:14;;;;;;;55.75;27.55;;;9.50;99.90;;;;;;5011676;28;20209;-85
2021/11/14 06:15:40;;;;;;;59.55;28.58;;;9.60;99.90;;;;;;4996264;28;20124;-85
2021/11/14 06:18:05;;;;;;;60.92;28.23;;;9.60;99.90;;;;;;4986642;28;20045;-85
2021/11/14 06:20:31;;;;;;;62.00;27.13;;;9.60;99.90;;;;;;4982547;28;20049;-85
2021/11/14 06:22:57;;;;;;;53.50;25.80;;;9.50;99.90;;;;;;4995993;28;20051;-85
2021/11/14 06:25:22;;;;;;;57.28;26.42;;;9.50;99.90;;;;;;4985770;28;20050;-85
2021/11/14 06:27:48;;;;;;;53.97;26.45;;;9.60;99.90;;;;;;5012545;28;20245;-85
2021/11/14 06:30:15;;;;;;;59.03;26.95;;;9.60;99.90;;;;;;5000621;28;20037;-85
2021/11/14 06:32:41;;;;;;;61.85;26.77;;;9.50;99.90;;;;;;4999231;28;20396;-85
2021/11/14 06:35:08;;;;;;;62.90;28.13;;;9.50;99.90;;;;;;5006792;28;20033;-85
2021/11/14 06:37:34;;;;;;;59.83;27.55;;;9.40;99.90;;;;;;5012185;28;20037;-85
2021/11/14 06:39:59;;;;;;;63.08;28.15;;;9.40;99.90;;;;;;4997985;28;20394;-85
2021/11/14 06:42:25;;;;;;;59.92;28.77;;;9.50;99.90;;;;;;5013273;28;20044;-85
2021/11/14 06:44:51;;;;;;;62.90;28.27;;;9.50;99.90;;;;;;5004812;28;20044;-84
2021/11/14 06:47:17;;;;;;;58.28;27.88;;;9.50;99.90;;;;;;4990517;28;20050;-84
2021/11/14 06:49:44;;;;;;;63.35;27.52;;;9.40;99.90;;;;;;5000034;28;20029;-84
2021/11/14 06:52:11;;;;;;;62.17;28.48;;;9.50;99.90;;;;;;5007035;28;20041;-84
2021/11/14 06:54:36;;;;;;;70.35;29.70;;;9.50;99.90;;;;;;4984433;28;20377;-84
2021/11/14 06:57:02;;;;;;;55.92;24.83;;;9.50;99.90;;;;;;5001721;28;20037;-84
2021/11/14 06:59:28;;;;;;;59.72;26.40;;;9.60;99.90;;;;;;4985343;28;20045;-84
2021/11/14 07:01:54;;;;;;;63.65;27.73;;;9.70;99.90;;;;;;4999731;28;20112;-85
2021/11/14 07:04:19;;;;;;;66.97;28.13;;;9.60;99.90;;;;;;4991796;28;20043;-85
2021/11/14 07:06:46;;;;;;;67.82;26.63;;;9.60;99.90;;;;;;5007977;28;20125;-84
2021/11/14 07:09:12;;;;;;;59.10;25.25;;;9.60;99.90;;;;;;5006458;28;20402;-84
2021/11/14 07:11:38;;;;;;;61.67;26.90;;;9.50;99.90;;;;;;4994839;28;20287;-84
2021/11/14 07:14:04;;;;;;;66.70;26.35;;;9.50;99.90;;;;;;4987948;28;20064;-84
2021/11/14 07:16:31;;;;;;;55.97;24.63;;;9.50;99.90;;;;;;4989101;28;20064;-84
2021/11/14 07:18:57;;;;;;;62.17;27.85;;;9.60;99.90;;;;;;4997769;28;20034;-84
2021/11/14 07:21:23;;;;;;;63.80;27.55;;;9.50;99.90;;;;;;5003548;28;20042;-84
2021/11/14 07:23:49;;;;;;;63.30;27.02;;;9.50;99.90;;;;;;5007148;28;20077;-84
2021/11/14 07:26:16;;;;;;;56.88;26.83;;;9.50;99.90;;;;;;4990616;28;20399;-85
2021/11/14 07:28:42;;;;;;;57.35;25.17;;;9.40;99.90;;;;;;5010475;28;20037;-85
2021/11/14 07:31:08;;;;;;;63.13;24.20;;;9.50;99.90;;;;;;5007983;28;20034;-85
2021/11/14 07:33:34;;;;;;;62.17;26.98;;;9.50;99.90;;;;;;4993784;28;20029;-85
2021/11/14 07:35:59;;;;;;;60.47;25.65;;;9.50;99.90;;;;;;5002972;28;20492;-85
2021/11/14 07:38:26;;;;;;;58.20;24.88;;;9.50;99.90;;;;;;4988696;28;20061;-84
2021/11/14 07:40:53;;;;;;;65.07;27.05;;;9.50;99.90;;;;;;4987957;28;20209;-84
2021/11/14 07:43:19;;;;;;;67.20;27.73;;;9.50;99.90;;;;;;4981227;28;20129;-84
2021/11/14 07:45:44;;;;;;;62.60;26.10;;;9.60;99.90;;;;;;4996098;28;20533;-84
2021/11/14 07:48:10;;;;;;;57.03;24.50;;;9.60;99.90;;;;;;5007578;28;20029;-84
2021/11/14 07:50:36;;;;;;;67.80;27.17;;;9.70;99.90;;;;;;4998387;28;20026;-84
2021/11/14 07:53:04;;;;;;;64.28;28.08;;;9.60;99.90;;;;;;5001948;28;20053;-86
2021/11/14 07:55:31;;;;;;;69.85;27.85;;;9.50;99.90;;;;;;4997709;28;20503;-83
2021/11/14 07:57:58;;;;;;;73.53;28.45;;;9.50;99.90;;;;;;5010547;28;20044;-84
2021/11/14 08:00:25;;;;;;;72.72;28.98;;;9.50;99.90;;;;;;5004404;28;20625;-84
2021/11/14 08:02:52;;;;;;;72.32;29.50;;;9.50;99.90;;;;;;5006044;28;20038;-84
2021/11/14 08:05:18;;;;;;;81.45;30.27;;;9.50;99.90;;;;;;5006038;28;20041;-85
2021/11/14 08:07:45;;;;;;;74.57;28.42;;;9.50;99.90;;;;;;5011303;28;20133;-84
2021/11/14 08:10:12;;;;;;;69.35;30.25;;;9.50;99.90;;;;;;4991391;28;20034;-84
2021/11/14 08:12:38;;;;;;;47.83;21.80;;;9.40;99.90;;;;;;4987538;28;20038;-83
2021/11/14 08:15:04;;;;;;;58.45;25.13;;;9.50;99.90;;;;;;5009405;28;20030;-87
2021/11/14 08:17:30;;;;;;;54.30;25.20;;;9.50;99.90;;;;;;5002782;28;20044;-85
2021/11/14 08:19:58;;;;;;;56.65;25.08;;;9.50;99.90;;;;;;5010823;28;20049;-85
2021/11/14 08:22:24;;;;;;;52.13;26.20;;;9.60;99.90;;;;;;4990034;28;20365;-88
2021/11/14 08:24:49;;;;;;;51.50;24.15;;;9.60;99.90;;;;;;4987123;28;20095;-89
2021/11/14 08:27:15;;;;;;;48.58;23.83;;;9.50;99.90;;;;;;4994769;28;20037;-85
2021/11/14 08:29:41;;;;;;;50.38;24.20;;;9.50;99.90;;;;;;5000220;28;20412;-85
2021/11/14 08:32:07;;;;;;;47.70;24.65;;;9.50;99.90;;;;;;5004880;28;20411;-87
2021/11/14 08:34:32;;;;;;;48.53;24.73;;;9.50;99.90;;;;;;4988535;28;20451;-87
2021/11/14 08:36:58;;;;;;;46.38;24.40;;;9.50;99.90;;;;;;5004186;28;20125;-87
2021/11/14 08:39:24;;;;;;;47.28;24.33;;;9.50;99.90;;;;;;5011119;28;20033;-87
2021/11/14 08:41:50;;;;;;;40.38;20.95;;;9.50;99.90;;;;;;4994168;28;20080;-88
2021/11/14 08:44:16;;;;;;;46.22;23.08;;;9.50;99.90;;;;;;4993334;28;20529;-87
2021/11/14 08:46:42;;;;;;;32.80;17.75;;;9.50;99.90;;;;;;4993573;28;20384;-87
2021/11/14 08:49:07;;;;;;;42.38;21.80;;;9.50;99.90;;;;;;4996334;28;20041;-88
2021/11/14 08:51:33;;;;;;;44.72;22.85;;;9.60;99.90;;;;;;4997401;28;20037;-85
2021/11/14 08:53:59;;;;;;;45.30;22.20;;;9.50;99.90;;;;;;4996555;28;20041;-85
2021/11/14 08:56:32;;;;;;;44.17;22.45;;;9.50;99.90;;;;;;5000884;28;20064;-88
2021/11/14 08:58:58;;;;;;;43.10;23.33;;;9.60;99.90;;;;;;5013174;28;20504;-85
2021/11/14 09:01:25;;;;;;;40.65;21.23;;;9.60;99.90;;;;;;5025382;28;20034;-84
2021/11/14 09:03:50;;;;;;;39.80;21.73;;;9.60;99.90;;;;;;5031059;28;20403;-85
2021/11/14 09:06:16;;;;;;;40.17;21.48;;;9.70;99.90;;;;;;4996484;28;20121;-86
2021/11/14 09:08:42;;;;;;;45.20;22.33;;;9.70;99.90;;;;;;4992973;28;20041;-86
2021/11/14 09:11:07;;;;;;;50.92;22.75;;;9.60;99.90;;;;;;4989095;28;20030;-86
2021/11/14 09:13:33;;;;;;;42.55;21.52;;;9.60;99.90;;;;;;5005739;28;20091;-86
2021/11/14 09:15:59;;;;;;;36.70;19.75;;;9.70;99.90;;;;;;5000132;28;20540;-86
2021/11/14 09:18:26;;;;;;;48.00;23.27;;;9.70;99.90;;;;;;4991786;28;20072;-86
2021/11/14 09:20:52;;;;;;;44.28;23.48;;;9.70;99.90;;;;;;5004575;28;20042;-84
2021/11/14 09:23:18;;;;;;;43.40;23.13;;;9.70;99.90;;;;;;5011133;28;20037;-88
2021/11/14 09:25:44;;;;;;;49.20;24.60;;;9.70;99.90;;;;;;5005974;28;20037;-86
2021/11/14 09:28:16;;;;;;;45.30;23.45;;;9.70;99.90;;;;;;5000813;28;20124;-86
2021/11/14 09:30:44;;;;;;;44.30;23.50;;;9.70;99.90;;;;;;5007959;28;20080;-87
2021/11/14 09:33:11;;;;;;;50.70;25.10;;;9.70;99.90;;;;;;4987008;28;20062;-87
2021/11/14 09:35:37;;;;;;;51.65;25.73;;;9.70;99.90;;;;;;4990902;28;20030;-88
2021/11/14 09:38:05;;;;;;;51.45;25.25;;;9.70;99.90;;;;;;4994191;28;20040;-88
2021/11/14 09:40:31;;;;;;;47.05;22.60;;;9.80;99.90;;;;;;4988140;28;20069;-87
2021/11/14 09:42:57;;;;;;;54.42;26.67;;;9.80;99.90;;;;;;4992335;28;20514;-87
2021/11/14 09:45:32;;;;;;;53.65;27.25;;;9.70;99.90;;;;;;4988594;28;20396;-88
2021/11/14 09:47:58;;;;;;;49.97;25.40;;;9.70;99.90;;;;;;4978230;28;20038;-88
2021/11/14 09:50:25;;;;;;;53.88;26.70;;;9.60;99.90;;;;;;4983131;28;20446;-87
2021/11/14 09:52:54;;;;;;;55.53;27.13;;;9.60;99.90;;;;;;4988049;28;20030;-88
2021/11/14 09:55:21;;;;;;;53.42;26.42;;;9.60;99.90;;;;;;4988754;28;20117;-87
2021/11/14 09:57:48;;;;;;;55.95;27.55;;;9.60;99.90;;;;;;4990675;28;20045;-87
2021/11/14 10:00:16;;;;;;;52.70;27.20;;;9.70;99.90;;;;;;4991008;28;20044;-87
2021/11/14 10:02:43;;;;;;;53.03;25.33;;;9.60;99.90;;;;;;5014716;28;20187;-87
2021/11/14 10:05:13;;;;;;;49.35;25.60;;;9.60;99.90;;;;;;4991961;28;20087;-87
2021/11/14 10:07:41;;;;;;;44.38;23.92;;;9.70;99.90;;;;;;5010838;28;20048;-88
2021/11/14 10:10:11;;;;;;;50.25;24.75;;;9.70;99.90;;;;;;4986654;28;20092;-88
2021/11/14 10:12:38;;;;;;;49.17;24.73;;;9.70;99.90;;;;;;4990818;28;20113;-88
2021/11/14 10:15:13;;;;;;;39.65;18.73;;;9.70;99.90;;;;;;4997153;28;20117;-88
2021/11/14 10:17:45;;;;;;;44.10;21.80;;;9.80;99.90;;;;;;4990395;28;20180;-88
2021/11/14 10:20:19;;;;;;;48.50;23.38;;;9.80;99.90;;;;;;4991358;28;20398;-88
2021/11/14 10:22:51;;;;;;;46.33;22.70;;;9.80;99.90;;;;;;4997293;28;20592;-87
2021/11/14 10:25:17;;;;;;;48.08;21.10;;;9.80;99.90;;;;;;5012397;28;20036;-87
2021/11/14 10:27:50;;;;;;;49.30;23.83;;;9.70;99.90;;;;;;4985621;28;20459;-88
2021/11/14 10:30:16;;;;;;;39.75;21.40;;;9.70;99.90;;;;;;4986967;28;20026;-87
2021/11/14 10:32:42;;;;;;;41.75;20.25;;;9.80;99.90;;;;;;4988115;28;20045;-88
2021/11/14 10:35:08;;;;;;;41.70;19.67;;;9.70;99.90;;;;;;4990992;28;20065;-87
2021/11/14 10:37:42;;;;;;;42.65;21.50;;;9.70;99.90;;;;;;4984116;28;20108;-88
2021/11/14 10:40:23;;;;;;;45.20;22.35;;;9.80;99.90;;;;;;4985279;28;20077;-87
2021/11/14 10:42:52;;;;;;;48.25;23.63;;;9.80;99.90;;;;;;5022756;28;20667;-87
2021/11/14 10:45:20;;;;;;;52.13;24.67;;;9.80;99.90;;;;;;4984264;28;20080;-88
2021/11/14 10:47:59;;;;;;;42.72;20.73;;;9.70;99.90;;;;;;4990600;28;20045;-87
2021/11/14 10:50:31;;;;;;;42.17;21.02;;;9.80;99.90;;;;;;4996767;28;20068;-87
2021/11/14 10:52:59;;;;;;;48.05;22.30;;;9.80;99.90;;;;;;4991757;28;20044;-88
2021/11/14 10:55:28;;;;;;;43.58;22.08;;;9.80;99.90;;;;;;5013465;28;20064;-88
2021/11/14 10:57:54;;;;;;;48.83;23.70;;;9.80;99.90;;;;;;4985689;28;20030;-88
2021/11/14 11:00:23;;;;;;;50.38;24.70;;;9.80;99.90;;;;;;4981121;28;20048;-88
2021/11/14 11:02:49;;;;;;;53.90;24.95;;;9.80;99.90;;;;;;4993349;28;20129;-87
2021/11/14 11:08:28;;;;;;;46.88;23.40;;;9.80;99.90;;;;;;5007849;28;20041;-87
2021/11/14 11:10:58;;;;;;;43.67;22.33;;;9.80;99.90;;;;;;4988691;28;20431;-88
2021/11/14 11:13:44;;;;;;;47.00;24.70;;;9.80;99.90;;;;;;4994577;28;20112;-88
2021/11/14 11:16:15;;;;;;;41.60;21.58;;;9.70;99.90;;;;;;5000428;28;20087;-87
2021/11/14 11:18:44;;;;;;;42.60;22.08;;;9.70;99.90;;;;;;4997519;28;20033;-88
2021/11/14 11:21:13;;;;;;;45.53;22.40;;;9.90;99.90;;;;;;4991289;28;20047;-88
2021/11/14 11:23:45;;;;;;;44.08;20.88;;;9.70;99.90;;;;;;5007639;28;20060;-86
2021/11/14 11:26:15;;;;;;;41.10;21.55;;;9.70;99.90;;;;;;4987789;28;20038;-86
2021/11/14 11:28:47;;;;;;;45.75;21.77;;;9.80;99.90;;;;;;4982111;28;20029;-87
2021/11/14 11:31:19;;;;;;;42.20;20.40;;;9.80;99.90;;;;;;5010626;28;20469;-86
2021/11/14 11:33:47;;;;;;;38.67;20.30;;;9.80;99.90;;;;;;5005279;28;20156;-86
2021/11/14 11:36:14;;;;;;;34.92;19.88;;;9.90;99.90;;;;;;5021785;28;20096;-87
2021/11/14 11:38:43;;;;;;;39.53;21.00;;;10.00;99.90;;;;;;4984538;28;20092;-87
2021/11/14 11:41:13;;;;;;;43.58;21.40;;;9.90;99.90;;;;;;4984319;28;20045;-86
2021/11/14 11:43:43;;;;;;;45.15;22.33;;;9.90;99.90;;;;;;4987529;28;20065;-86
2021/11/14 11:46:12;;;;;;;37.85;20.85;;;9.90;99.90;;;;;;5002288;28;20037;-86
2021/11/14 11:48:42;;;;;;;37.92;18.00;;;9.80;99.90;;;;;;4988798;28;20037;-88
2021/11/14 11:51:13;;;;;;;36.95;19.08;;;10.00;99.90;;;;;;5004809;28;20071;-86
2021/11/14 11:53:40;;;;;;;41.03;21.25;;;10.00;99.90;;;;;;4990910;28;20037;-86
2021/11/14 11:56:15;;;;;;;44.22;22.25;;;10.00;99.90;;;;;;4987518;28;20124;-86
2021/11/14 11:58:43;;;;;;;42.78;22.55;;;9.90;99.90;;;;;;4992786;28;20417;-86
2021/11/14 12:01:30;;;;;;;40.70;21.35;;;9.90;99.90;;;;;;4989834;28;20420;-86
2021/11/14 12:04:31;;;;;;;40.97;21.77;;;9.90;99.90;;;;;;4999121;28;20110;-86
2021/11/14 12:06:59;;;;;;;44.80;23.83;;;9.90;99.90;;;;;;4983822;28;20531;-86
2021/11/14 12:09:34;;;;;;;39.80;20.58;;;9.90;99.90;;;;;;5001336;28;20442;-86
2021/11/14 12:12:00;;;;;;;43.75;22.77;;;10.00;99.90;;;;;;4982249;28;20037;-86
2021/11/14 12:14:29;;;;;;;43.40;22.05;;;9.90;99.90;;;;;;5001498;28;20044;-86
2021/11/14 12:16:54;;;;;;;43.85;22.77;;;9.90;99.90;;;;;;4980097;28;20116;-86
2021/11/14 12:19:24;;;;;;;42.70;22.65;;;10.00;99.90;;;;;;4986211;28;20124;-86
2021/11/14 12:22:15;;;;;;;45.28;24.10;;;9.90;99.90;;;;;;5004355;28;20567;-84
2021/11/14 12:24:52;;;;;;;43.53;23.38;;;9.90;99.90;;;;;;4996275;28;20930;-85
2021/11/14 12:27:23;;;;;;;45.30;22.35;;;9.90;99.90;;;;;;4980587;28;20112;-86
2021/11/14 12:30:02;;;;;;;44.85;24.15;;;9.90;99.90;;;;;;4982294;28;20034;-85
2021/11/14 12:32:51;;;;;;;41.30;22.27;;;9.90;99.90;;;;;;5005347;28;20033;-88
2021/11/14 12:39:34;;;;;;;46.28;22.48;;;10.00;99.90;;;;;;4984909;28;20616;-93
2021/11/14 12:42:19;;;;;;;50.58;25.13;;;10.00;99.90;;;;;;4967550;28;20415;-92
2021/11/14 12:44:50;;;;;;;45.78;24.75;;;9.90;99.90;;;;;;4972965;28;20038;-94
2021/11/14 12:47:28;;;;;;;50.67;25.23;;;9.90;99.90;;;;;;4978804;28;20475;-93
2021/11/14 12:50:12;;;;;;;47.05;22.08;;;10.00;99.90;;;;;;5009930;28;20154;-92
2021/11/14 12:52:40;;;;;;;50.28;26.83;;;10.10;99.90;;;;;;4980932;28;20037;-92